sensor_id;sensor_type;location;lat;lon;timestamp;temperature;humidity
20231;DHT22;10274;49.022;9.338;2023-04-15T00:00:07;3.70;85.20
20231;DHT22;10274;49.022;9.338;2023-04-15T00:02:34;3.80;89.40
20231;DHT22;10274;49.022;9.338;2023-04-15T00:05:01;3.90;80.10
20231;DHT22;10274;49.022;9.338;2023-04-15T00:07:28;3.90;67.40
20231;DHT22;10274;49.022;9.338;2023-04-15T00:09:57;3.90;70.40
20231;DHT22;10274;49.022;9.338;2023-04-15T00:12:24;3.90;72.50
20231;DHT22;10274;49.022;9.338;2023-04-15T00:14:51;3.90;82.50
20231;DHT22;10274;49.022;9.338;2023-04-15T00:17:17;3.40;66.30
20231;DHT22;10274;49.022;9.338;2023-04-15T00:19:44;3.10;91.20
20231;DHT22;10274;49.022;9.338;2023-04-15T00:22:11;3.20;99.90
20231;DHT22;10274;49.022;9.338;2023-04-15T00:24:38;3.30;99.90
20231;DHT22;10274;49.022;9.338;2023-04-15T00:27:06;3.40;99.90
20231;DHT22;10274;49.022;9.338;2023-04-15T00:29:33;3.40;98.50
20231;DHT22;10274;49.022;9.338;2023-04-15T00:32:00;3.50;99.60
20231;DHT22;10274;49.022;9.338;2023-04-15T00:34:27;3.60;94.50
20231;DHT22;10274;49.022;9.338;2023-04-15T00:36:54;3.50;92.10
20231;DHT22;10274;49.022;9.338;2023-04-15T00:39:21;3.50;87.80
20231;DHT22;10274;49.022;9.338;2023-04-15T00:41:48;3.40;90.40
20231;DHT22;10274;49.022;9.338;2023-04-15T00:44:16;3.30;91.60
20231;DHT22;10274;49.022;9.338;2023-04-15T00:46:44;3.30;97.10
20231;DHT22;10274;49.022;9.338;2023-04-15T00:49:12;3.30;95.30
20231;DHT22;10274;49.022;9.338;2023-04-15T00:51:39;3.30;99.70
20231;DHT22;10274;49.022;9.338;2023-04-15T00:54:05;3.40;99.90
20231;DHT22;10274;49.022;9.338;2023-04-15T00:56:34;3.40;99.90
20231;DHT22;10274;49.022;9.338;2023-04-15T00:59:02;3.50;97.30
20231;DHT22;10274;49.022;9.338;2023-04-15T01:01:33;3.40;95.10
20231;DHT22;10274;49.022;9.338;2023-04-15T01:04:00;3.50;97.50
20231;DHT22;10274;49.022;9.338;2023-04-15T01:06:27;3.60;93.90
20231;DHT22;10274;49.022;9.338;2023-04-15T01:08:55;3.40;95.70
20231;DHT22;10274;49.022;9.338;2023-04-15T01:11:22;2.80;76.90
20231;DHT22;10274;49.022;9.338;2023-04-15T01:13:50;2.90;94.30
20231;DHT22;10274;49.022;9.338;2023-04-15T01:16:17;3.00;98.50
20231;DHT22;10274;49.022;9.338;2023-04-15T01:18:45;3.10;97.20
20231;DHT22;10274;49.022;9.338;2023-04-15T01:21:12;3.20;99.90
20231;DHT22;10274;49.022;9.338;2023-04-15T01:23:39;3.20;99.90
20231;DHT22;10274;49.022;9.338;2023-04-15T01:26:07;3.30;95.90
20231;DHT22;10274;49.022;9.338;2023-04-15T01:28:34;3.20;98.90
20231;DHT22;10274;49.022;9.338;2023-04-15T01:31:05;3.00;99.90
20231;DHT22;10274;49.022;9.338;2023-04-15T01:33:33;2.80;99.90
20231;DHT22;10274;49.022;9.338;2023-04-15T01:35:59;2.60;99.90
20231;DHT22;10274;49.022;9.338;2023-04-15T01:38:27;2.70;99.90
20231;DHT22;10274;49.022;9.338;2023-04-15T01:40:54;2.70;99.90
20231;DHT22;10274;49.022;9.338;2023-04-15T01:43:22;2.90;99.90
20231;DHT22;10274;49.022;9.338;2023-04-15T01:45:49;3.00;99.90
20231;DHT22;10274;49.022;9.338;2023-04-15T01:48:16;3.00;99.90
20231;DHT22;10274;49.022;9.338;2023-04-15T01:50:43;3.00;99.90
20231;DHT22;10274;49.022;9.338;2023-04-15T01:53:10;2.70;99.90
20231;DHT22;10274;49.022;9.338;2023-04-15T01:55:36;2.70;99.90
20231;DHT22;10274;49.022;9.338;2023-04-15T01:58:03;2.70;99.90
20231;DHT22;10274;49.022;9.338;2023-04-15T02:00:31;2.70;99.90
20231;DHT22;10274;49.022;9.338;2023-04-15T02:02:58;2.80;99.90
20231;DHT22;10274;49.022;9.338;2023-04-15T02:05:25;2.90;99.90
20231;DHT22;10274;49.022;9.338;2023-04-15T02:07:52;2.70;99.90
20231;DHT22;10274;49.022;9.338;2023-04-15T02:10:19;2.70;99.90
20231;DHT22;10274;49.022;9.338;2023-04-15T02:12:45;2.60;99.90
20231;DHT22;10274;49.022;9.338;2023-04-15T02:15:12;2.70;99.90
20231;DHT22;10274;49.022;9.338;2023-04-15T02:17:40;2.50;99.90
20231;DHT22;10274;49.022;9.338;2023-04-15T02:20:10;2.30;99.90
20231;DHT22;10274;49.022;9.338;2023-04-15T02:22:37;2.40;99.90
20231;DHT22;10274;49.022;9.338;2023-04-15T02:25:05;2.60;99.90
20231;DHT22;10274;49.022;9.338;2023-04-15T02:27:32;2.60;99.90
20231;DHT22;10274;49.022;9.338;2023-04-15T02:29:58;2.60;99.90
20231;DHT22;10274;49.022;9.338;2023-04-15T02:32:25;2.70;99.90
20231;DHT22;10274;49.022;9.338;2023-04-15T02:34:54;2.70;99.90
20231;DHT22;10274;49.022;9.338;2023-04-15T02:37:21;2.70;99.90
20231;DHT22;10274;49.022;9.338;2023-04-15T02:39:49;2.80;99.90
20231;DHT22;10274;49.022;9.338;2023-04-15T02:42:15;2.80;99.90
20231;DHT22;10274;49.022;9.338;2023-04-15T02:44:42;2.60;99.90
20231;DHT22;10274;49.022;9.338;2023-04-15T02:47:09;2.00;89.70
20231;DHT22;10274;49.022;9.338;2023-04-15T02:49:36;2.00;99.90
20231;DHT22;10274;49.022;9.338;2023-04-15T02:52:04;2.20;99.90
20231;DHT22;10274;49.022;9.338;2023-04-15T02:54:31;2.30;99.90
20231;DHT22;10274;49.022;9.338;2023-04-15T02:56:58;2.40;99.90
20231;DHT22;10274;49.022;9.338;2023-04-15T02:59:26;2.40;99.90
20231;DHT22;10274;49.022;9.338;2023-04-15T03:01:52;2.40;99.90
20231;DHT22;10274;49.022;9.338;2023-04-15T03:04:20;2.40;99.90
20231;DHT22;10274;49.022;9.338;2023-04-15T03:06:47;2.30;99.90
20231;DHT22;10274;49.022;9.338;2023-04-15T03:09:15;2.10;99.90
20231;DHT22;10274;49.022;9.338;2023-04-15T03:11:42;2.10;99.90
20231;DHT22;10274;49.022;9.338;2023-04-15T03:14:08;2.20;99.90
20231;DHT22;10274;49.022;9.338;2023-04-15T03:16:35;2.40;99.90
20231;DHT22;10274;49.022;9.338;2023-04-15T03:19:02;2.40;99.90
20231;DHT22;10274;49.022;9.338;2023-04-15T03:21:28;2.40;99.90
20231;DHT22;10274;49.022;9.338;2023-04-15T03:23:55;2.40;99.90
20231;DHT22;10274;49.022;9.338;2023-04-15T03:26:27;2.30;99.90
20231;DHT22;10274;49.022;9.338;2023-04-15T03:28:54;2.00;99.90
20231;DHT22;10274;49.022;9.338;2023-04-15T03:31:21;2.00;99.90
20231;DHT22;10274;49.022;9.338;2023-04-15T03:33:48;2.20;99.90
20231;DHT22;10274;49.022;9.338;2023-04-15T03:36:15;2.10;99.90
20231;DHT22;10274;49.022;9.338;2023-04-15T03:38:42;2.10;99.90
20231;DHT22;10274;49.022;9.338;2023-04-15T03:41:08;2.10;99.90
20231;DHT22;10274;49.022;9.338;2023-04-15T03:43:36;2.30;99.90
20231;DHT22;10274;49.022;9.338;2023-04-15T03:46:03;2.50;99.90
20231;DHT22;10274;49.022;9.338;2023-04-15T03:48:30;2.40;99.90
20231;DHT22;10274;49.022;9.338;2023-04-15T03:50:57;2.20;99.90
20231;DHT22;10274;49.022;9.338;2023-04-15T03:53:23;2.20;99.90
20231;DHT22;10274;49.022;9.338;2023-04-15T03:55:50;2.20;99.90
20231;DHT22;10274;49.022;9.338;2023-04-15T03:58:17;2.10;99.90
20231;DHT22;10274;49.022;9.338;2023-04-15T04:00:45;2.10;99.90
20231;DHT22;10274;49.022;9.338;2023-04-15T04:03:11;2.30;99.90
20231;DHT22;10274;49.022;9.338;2023-04-15T04:05:38;2.30;99.90
20231;DHT22;10274;49.022;9.338;2023-04-15T04:08:06;2.40;99.90
20231;DHT22;10274;49.022;9.338;2023-04-15T04:10:32;2.40;99.90
20231;DHT22;10274;49.022;9.338;2023-04-15T04:12:59;2.40;99.90
20231;DHT22;10274;49.022;9.338;2023-04-15T04:15:26;2.50;99.90
20231;DHT22;10274;49.022;9.338;2023-04-15T04:17:54;2.40;99.90
20231;DHT22;10274;49.022;9.338;2023-04-15T04:20:20;2.10;99.90
20231;DHT22;10274;49.022;9.338;2023-04-15T04:22:47;1.90;99.90
20231;DHT22;10274;49.022;9.338;2023-04-15T04:25:13;2.00;99.90
20231;DHT22;10274;49.022;9.338;2023-04-15T04:27:40;2.10;99.90
20231;DHT22;10274;49.022;9.338;2023-04-15T04:30:08;2.10;99.90
20231;DHT22;10274;49.022;9.338;2023-04-15T04:32:34;2.10;99.90
20231;DHT22;10274;49.022;9.338;2023-04-15T04:35:03;1.80;99.90
20231;DHT22;10274;49.022;9.338;2023-04-15T04:37:30;1.80;99.90
20231;DHT22;10274;49.022;9.338;2023-04-15T04:39:56;1.80;99.90
20231;DHT22;10274;49.022;9.338;2023-04-15T04:42:23;1.90;99.90
20231;DHT22;10274;49.022;9.338;2023-04-15T04:44:49;1.90;99.90
20231;DHT22;10274;49.022;9.338;2023-04-15T04:47:17;2.00;99.90
20231;DHT22;10274;49.022;9.338;2023-04-15T04:49:43;2.10;99.90
20231;DHT22;10274;49.022;9.338;2023-04-15T04:52:11;2.20;99.90
20231;DHT22;10274;49.022;9.338;2023-04-15T04:54:38;2.00;99.90
20231;DHT22;10274;49.022;9.338;2023-04-15T04:57:05;1.80;99.90
20231;DHT22;10274;49.022;9.338;2023-04-15T04:59:32;1.80;99.90
20231;DHT22;10274;49.022;9.338;2023-04-15T05:01:59;1.80;99.90
20231;DHT22;10274;49.022;9.338;2023-04-15T05:04:25;1.80;99.90
20231;DHT22;10274;49.022;9.338;2023-04-15T05:06:52;1.90;99.90
20231;DHT22;10274;49.022;9.338;2023-04-15T05:09:20;1.90;99.90
20231;DHT22;10274;49.022;9.338;2023-04-15T05:11:47;1.90;99.90
20231;DHT22;10274;49.022;9.338;2023-04-15T05:14:13;2.00;99.90
20231;DHT22;10274;49.022;9.338;2023-04-15T05:16:40;2.00;99.90
20231;DHT22;10274;49.022;9.338;2023-04-15T05:19:07;1.60;99.90
20231;DHT22;10274;49.022;9.338;2023-04-15T05:21:34;1.60;99.90
20231;DHT22;10274;49.022;9.338;2023-04-15T05:24:01;1.70;99.90
20231;DHT22;10274;49.022;9.338;2023-04-15T05:26:29;1.90;99.90
20231;DHT22;10274;49.022;9.338;2023-04-15T05:28:55;2.00;99.90
20231;DHT22;10274;49.022;9.338;2023-04-15T05:31:30;2.00;99.90
20231;DHT22;10274;49.022;9.338;2023-04-15T05:33:57;2.00;99.90
20231;DHT22;10274;49.022;9.338;2023-04-15T05:36:24;1.90;99.90
20231;DHT22;10274;49.022;9.338;2023-04-15T05:38:52;2.00;99.90
20231;DHT22;10274;49.022;9.338;2023-04-15T05:41:18;2.10;99.90
20231;DHT22;10274;49.022;9.338;2023-04-15T05:43:45;2.10;99.90
20231;DHT22;10274;49.022;9.338;2023-04-15T05:46:12;2.10;99.90
20231;DHT22;10274;49.022;9.338;2023-04-15T05:48:40;2.20;99.90
20231;DHT22;10274;49.022;9.338;2023-04-15T05:51:06;2.20;99.90
20231;DHT22;10274;49.022;9.338;2023-04-15T05:53:33;2.30;99.90
20231;DHT22;10274;49.022;9.338;2023-04-15T05:56:00;2.50;99.90
20231;DHT22;10274;49.022;9.338;2023-04-15T05:58:26;2.60;99.90
20231;DHT22;10274;49.022;9.338;2023-04-15T06:00:53;2.70;99.90
20231;DHT22;10274;49.022;9.338;2023-04-15T06:03:20;2.80;99.90
20231;DHT22;10274;49.022;9.338;2023-04-15T06:05:48;2.80;99.90
20231;DHT22;10274;49.022;9.338;2023-04-15T06:08:15;2.90;99.90
20231;DHT22;10274;49.022;9.338;2023-04-15T06:10:42;2.80;99.90
20231;DHT22;10274;49.022;9.338;2023-04-15T06:13:08;2.70;99.90
20231;DHT22;10274;49.022;9.338;2023-04-15T06:15:35;2.80;99.90
20231;DHT22;10274;49.022;9.338;2023-04-15T06:18:02;2.90;99.90
20231;DHT22;10274;49.022;9.338;2023-04-15T06:20:28;3.10;99.90
20231;DHT22;10274;49.022;9.338;2023-04-15T06:22:56;3.40;99.90
20231;DHT22;10274;49.022;9.338;2023-04-15T06:25:23;3.70;99.90
20231;DHT22;10274;49.022;9.338;2023-04-15T06:27:50;3.90;99.90
20231;DHT22;10274;49.022;9.338;2023-04-15T06:30:16;4.10;99.90
20231;DHT22;10274;49.022;9.338;2023-04-15T06:32:43;4.20;97.60
20231;DHT22;10274;49.022;9.338;2023-04-15T06:35:10;4.50;95.40
20231;DHT22;10274;49.022;9.338;2023-04-15T06:37:37;4.80;92.30
20231;DHT22;10274;49.022;9.338;2023-04-15T06:40:06;5.10;76.10
20231;DHT22;10274;49.022;9.338;2023-04-15T06:42:34;5.40;67.00
20231;DHT22;10274;49.022;9.338;2023-04-15T06:45:01;5.60;30.30
20231;DHT22;10274;49.022;9.338;2023-04-15T06:47:28;5.80;11.00
20231;DHT22;10274;49.022;9.338;2023-04-15T06:49:55;5.90;7.20
20231;DHT22;10274;49.022;9.338;2023-04-15T06:52:21;6.00;1.00
20231;DHT22;10274;49.022;9.338;2023-04-15T06:54:48;6.00;1.00
20231;DHT22;10274;49.022;9.338;2023-04-15T06:57:16;6.20;1.00
20231;DHT22;10274;49.022;9.338;2023-04-15T06:59:42;6.30;1.00
20231;DHT22;10274;49.022;9.338;2023-04-15T07:02:11;6.50;1.00
20231;DHT22;10274;49.022;9.338;2023-04-15T07:04:38;6.60;1.00
20231;DHT22;10274;49.022;9.338;2023-04-15T07:07:05;6.60;1.00
20231;DHT22;10274;49.022;9.338;2023-04-15T07:09:32;6.60;1.00
20231;DHT22;10274;49.022;9.338;2023-04-15T07:11:59;6.60;1.00
20231;DHT22;10274;49.022;9.338;2023-04-15T07:14:27;6.60;1.00
20231;DHT22;10274;49.022;9.338;2023-04-15T07:16:53;6.70;1.00
20231;DHT22;10274;49.022;9.338;2023-04-15T07:19:20;6.80;1.00
20231;DHT22;10274;49.022;9.338;2023-04-15T07:21:48;6.90;1.00
20231;DHT22;10274;49.022;9.338;2023-04-15T07:24:14;6.80;1.00
20231;DHT22;10274;49.022;9.338;2023-04-15T07:26:44;6.90;1.00
20231;DHT22;10274;49.022;9.338;2023-04-15T07:29:10;7.00;1.00
20231;DHT22;10274;49.022;9.338;2023-04-15T07:31:39;7.20;1.00
20231;DHT22;10274;49.022;9.338;2023-04-15T07:34:06;7.40;1.00
20231;DHT22;10274;49.022;9.338;2023-04-15T07:36:33;7.80;1.00
20231;DHT22;10274;49.022;9.338;2023-04-15T07:38:59;8.10;1.00
20231;DHT22;10274;49.022;9.338;2023-04-15T07:41:28;8.20;1.00
20231;DHT22;10274;49.022;9.338;2023-04-15T07:43:54;8.30;99.90
20231;DHT22;10274;49.022;9.338;2023-04-15T07:46:21;8.20;99.90
20231;DHT22;10274;49.022;9.338;2023-04-15T07:48:50;8.40;99.90
20231;DHT22;10274;49.022;9.338;2023-04-15T07:51:17;8.70;99.90
20231;DHT22;10274;49.022;9.338;2023-04-15T07:53:43;9.00;1.00
20231;DHT22;10274;49.022;9.338;2023-04-15T07:56:10;9.00;99.90
20231;DHT22;10274;49.022;9.338;2023-04-15T07:58:37;9.60;1.00
20231;DHT22;10274;49.022;9.338;2023-04-15T08:01:04;10.10;99.90
20231;DHT22;10274;49.022;9.338;2023-04-15T08:03:31;10.40;1.00
20231;DHT22;10274;49.022;9.338;2023-04-15T08:05:59;10.70;41.30
20231;DHT22;10274;49.022;9.338;2023-04-15T08:08:26;11.20;99.90
20231;DHT22;10274;49.022;9.338;2023-04-15T08:10:52;11.20;99.90
20231;DHT22;10274;49.022;9.338;2023-04-15T08:13:19;11.20;99.90
20231;DHT22;10274;49.022;9.338;2023-04-15T08:15:52;10.90;7.40
20231;DHT22;10274;49.022;9.338;2023-04-15T08:18:19;11.00;1.00
20231;DHT22;10274;49.022;9.338;2023-04-15T08:20:45;11.30;1.00
20231;DHT22;10274;49.022;9.338;2023-04-15T08:23:13;11.30;99.90
20231;DHT22;10274;49.022;9.338;2023-04-15T08:25:40;10.90;99.90
20231;DHT22;10274;49.022;9.338;2023-04-15T08:28:08;10.70;92.50
20231;DHT22;10274;49.022;9.338;2023-04-15T08:30:34;11.00;1.00
20231;DHT22;10274;49.022;9.338;2023-04-15T08:33:01;11.10;1.00
20231;DHT22;10274;49.022;9.338;2023-04-15T08:35:27;11.20;1.00
20231;DHT22;10274;49.022;9.338;2023-04-15T08:37:54;11.50;1.00
20231;DHT22;10274;49.022;9.338;2023-04-15T08:40:26;12.00;99.90
20231;DHT22;10274;49.022;9.338;2023-04-15T08:42:56;12.40;99.90
20231;DHT22;10274;49.022;9.338;2023-04-15T08:45:24;12.30;99.90
20231;DHT22;10274;49.022;9.338;2023-04-15T08:47:53;12.10;11.90
20231;DHT22;10274;49.022;9.338;2023-04-15T08:50:21;12.20;72.60
20231;DHT22;10274;49.022;9.338;2023-04-15T08:52:53;12.20;1.00
20231;DHT22;10274;49.022;9.338;2023-04-15T08:55:22;12.90;1.00
20231;DHT22;10274;49.022;9.338;2023-04-15T08:57:50;12.60;1.00
20231;DHT22;10274;49.022;9.338;2023-04-15T09:00:17;12.00;1.00
20231;DHT22;10274;49.022;9.338;2023-04-15T09:02:44;12.10;1.00
20231;DHT22;10274;49.022;9.338;2023-04-15T09:05:11;12.60;1.00
20231;DHT22;10274;49.022;9.338;2023-04-15T09:07:38;13.20;1.00
20231;DHT22;10274;49.022;9.338;2023-04-15T09:10:05;13.90;1.00
20231;DHT22;10274;49.022;9.338;2023-04-15T09:12:34;14.00;1.00
20231;DHT22;10274;49.022;9.338;2023-04-15T09:15:01;13.60;1.00
20231;DHT22;10274;49.022;9.338;2023-04-15T09:17:28;15.40;1.00
20231;DHT22;10274;49.022;9.338;2023-04-15T09:20:07;15.50;99.90
20231;DHT22;10274;49.022;9.338;2023-04-15T09:22:35;15.60;99.90
20231;DHT22;10274;49.022;9.338;2023-04-15T09:25:02;15.40;99.90
20231;DHT22;10274;49.022;9.338;2023-04-15T09:27:29;15.70;99.90
20231;DHT22;10274;49.022;9.338;2023-04-15T09:29:57;16.10;99.90
20231;DHT22;10274;49.022;9.338;2023-04-15T09:32:23;15.70;99.90
20231;DHT22;10274;49.022;9.338;2023-04-15T09:34:50;15.30;99.90
20231;DHT22;10274;49.022;9.338;2023-04-15T09:37:17;15.70;99.90
20231;DHT22;10274;49.022;9.338;2023-04-15T09:39:46;16.10;99.90
20231;DHT22;10274;49.022;9.338;2023-04-15T09:42:14;16.30;99.90
20231;DHT22;10274;49.022;9.338;2023-04-15T09:44:42;16.60;98.90
20231;DHT22;10274;49.022;9.338;2023-04-15T09:47:26;16.20;18.20
20231;DHT22;10274;49.022;9.338;2023-04-15T09:49:54;16.20;18.10
20231;DHT22;10274;49.022;9.338;2023-04-15T09:52:21;16.40;11.40
20231;DHT22;10274;49.022;9.338;2023-04-15T09:54:52;16.90;1.00
20231;DHT22;10274;49.022;9.338;2023-04-15T09:57:19;17.50;1.00
20231;DHT22;10274;49.022;9.338;2023-04-15T09:59:46;17.60;1.00
20231;DHT22;10274;49.022;9.338;2023-04-15T10:02:14;18.10;1.00
20231;DHT22;10274;49.022;9.338;2023-04-15T10:04:41;18.20;1.00
20231;DHT22;10274;49.022;9.338;2023-04-15T10:07:09;18.60;1.00
20231;DHT22;10274;49.022;9.338;2023-04-15T10:09:37;18.60;1.00
20231;DHT22;10274;49.022;9.338;2023-04-15T10:12:04;18.10;1.00
20231;DHT22;10274;49.022;9.338;2023-04-15T10:14:33;18.50;1.00
20231;DHT22;10274;49.022;9.338;2023-04-15T10:17:01;18.10;1.00
20231;DHT22;10274;49.022;9.338;2023-04-15T10:19:33;17.90;1.00
20231;DHT22;10274;49.022;9.338;2023-04-15T10:22:02;18.00;1.00
20231;DHT22;10274;49.022;9.338;2023-04-15T10:24:30;18.80;1.00
20231;DHT22;10274;49.022;9.338;2023-04-15T10:26:58;19.10;1.00
20231;DHT22;10274;49.022;9.338;2023-04-15T10:29:25;19.00;1.00
20231;DHT22;10274;49.022;9.338;2023-04-15T10:31:53;18.20;1.00
20231;DHT22;10274;49.022;9.338;2023-04-15T10:34:20;18.10;1.00
20231;DHT22;10274;49.022;9.338;2023-04-15T10:36:49;17.80;1.00
20231;DHT22;10274;49.022;9.338;2023-04-15T10:39:38;17.50;1.00
20231;DHT22;10274;49.022;9.338;2023-04-15T10:42:06;16.90;1.00
20231;DHT22;10274;49.022;9.338;2023-04-15T10:44:35;17.00;1.00
20231;DHT22;10274;49.022;9.338;2023-04-15T10:47:06;16.80;1.00
20231;DHT22;10274;49.022;9.338;2023-04-15T10:49:42;17.20;1.00
20231;DHT22;10274;49.022;9.338;2023-04-15T10:52:11;16.80;1.00
20231;DHT22;10274;49.022;9.338;2023-04-15T10:54:38;16.70;1.00
20231;DHT22;10274;49.022;9.338;2023-04-15T10:57:14;16.40;1.00
20231;DHT22;10274;49.022;9.338;2023-04-15T11:00:00;16.30;1.00
20231;DHT22;10274;49.022;9.338;2023-04-15T11:02:38;16.40;1.00
20231;DHT22;10274;49.022;9.338;2023-04-15T11:05:06;16.00;1.00
20231;DHT22;10274;49.022;9.338;2023-04-15T11:07:35;16.10;1.00
20231;DHT22;10274;49.022;9.338;2023-04-15T11:10:03;15.90;1.00
20231;DHT22;10274;49.022;9.338;2023-04-15T11:12:34;15.70;1.00
20231;DHT22;10274;49.022;9.338;2023-04-15T11:15:26;15.80;1.00
20231;DHT22;10274;49.022;9.338;2023-04-15T11:17:54;15.70;1.00
20231;DHT22;10274;49.022;9.338;2023-04-15T11:20:21;15.40;1.00
20231;DHT22;10274;49.022;9.338;2023-04-15T11:22:50;15.30;1.00
20231;DHT22;10274;49.022;9.338;2023-04-15T11:25:23;15.50;1.00
20231;DHT22;10274;49.022;9.338;2023-04-15T11:27:51;15.30;1.00
20231;DHT22;10274;49.022;9.338;2023-04-15T11:30:21;15.30;1.00
20231;DHT22;10274;49.022;9.338;2023-04-15T11:32:48;15.50;1.00
20231;DHT22;10274;49.022;9.338;2023-04-15T11:35:15;15.20;1.00
20231;DHT22;10274;49.022;9.338;2023-04-15T11:37:42;15.20;1.00
20231;DHT22;10274;49.022;9.338;2023-04-15T11:40:11;15.30;1.00
20231;DHT22;10274;49.022;9.338;2023-04-15T11:42:38;15.50;1.00
20231;DHT22;10274;49.022;9.338;2023-04-15T11:45:09;15.40;1.00
20231;DHT22;10274;49.022;9.338;2023-04-15T11:47:36;15.80;1.00
20231;DHT22;10274;49.022;9.338;2023-04-15T11:50:16;15.80;1.00
20231;DHT22;10274;49.022;9.338;2023-04-15T11:52:52;15.70;1.00
20231;DHT22;10274;49.022;9.338;2023-04-15T11:55:20;15.60;1.00
20231;DHT22;10274;49.022;9.338;2023-04-15T11:57:48;15.50;1.00
20231;DHT22;10274;49.022;9.338;2023-04-15T12:00:15;15.50;1.00
20231;DHT22;10274;49.022;9.338;2023-04-15T12:02:42;15.50;1.00
20231;DHT22;10274;49.022;9.338;2023-04-15T12:05:09;15.30;1.00
20231;DHT22;10274;49.022;9.338;2023-04-15T12:07:57;15.00;1.00
20231;DHT22;10274;49.022;9.338;2023-04-15T12:10:26;14.90;1.00
20231;DHT22;10274;49.022;9.338;2023-04-15T12:12:52;15.00;1.00
20231;DHT22;10274;49.022;9.338;2023-04-15T12:15:21;14.70;1.00
20231;DHT22;10274;49.022;9.338;2023-04-15T12:17:48;14.70;1.00
20231;DHT22;10274;49.022;9.338;2023-04-15T12:20:23;14.60;1.00
20231;DHT22;10274;49.022;9.338;2023-04-15T12:22:50;14.50;1.00
20231;DHT22;10274;49.022;9.338;2023-04-15T12:25:17;14.50;1.00
20231;DHT22;10274;49.022;9.338;2023-04-15T12:27:51;14.40;1.00
20231;DHT22;10274;49.022;9.338;2023-04-15T12:30:19;14.40;1.00
20231;DHT22;10274;49.022;9.338;2023-04-15T12:32:45;14.10;1.00
20231;DHT22;10274;49.022;9.338;2023-04-15T12:35:13;13.90;1.00
20231;DHT22;10274;49.022;9.338;2023-04-15T12:37:39;14.00;1.00
20231;DHT22;10274;49.022;9.338;2023-04-15T12:40:07;13.90;1.00
20231;DHT22;10274;49.022;9.338;2023-04-15T12:42:34;13.90;1.00
20231;DHT22;10274;49.022;9.338;2023-04-15T12:45:03;13.80;1.00
20231;DHT22;10274;49.022;9.338;2023-04-15T12:47:30;13.80;1.00
20231;DHT22;10274;49.022;9.338;2023-04-15T12:49:56;13.60;1.00
20231;DHT22;10274;49.022;9.338;2023-04-15T12:52:23;13.60;1.00
20231;DHT22;10274;49.022;9.338;2023-04-15T12:54:50;13.60;1.00
20231;DHT22;10274;49.022;9.338;2023-04-15T12:57:16;13.60;1.00
20231;DHT22;10274;49.022;9.338;2023-04-15T12:59:43;13.50;1.00
20231;DHT22;10274;49.022;9.338;2023-04-15T13:02:11;13.40;1.00
20231;DHT22;10274;49.022;9.338;2023-04-15T13:04:38;13.30;1.00
20231;DHT22;10274;49.022;9.338;2023-04-15T13:07:04;13.30;1.00
20231;DHT22;10274;49.022;9.338;2023-04-15T13:09:32;13.20;1.00
20231;DHT22;10274;49.022;9.338;2023-04-15T13:11:59;13.10;1.00
20231;DHT22;10274;49.022;9.338;2023-04-15T13:14:25;13.10;1.00
20231;DHT22;10274;49.022;9.338;2023-04-15T13:16:52;13.10;1.00
20231;DHT22;10274;49.022;9.338;2023-04-15T13:19:20;13.10;1.00
20231;DHT22;10274;49.022;9.338;2023-04-15T13:21:47;13.00;1.00
20231;DHT22;10274;49.022;9.338;2023-04-15T13:24:14;13.00;1.00
20231;DHT22;10274;49.022;9.338;2023-04-15T13:26:40;13.00;1.00
20231;DHT22;10274;49.022;9.338;2023-04-15T13:29:07;12.80;1.00
20231;DHT22;10274;49.022;9.338;2023-04-15T13:31:34;12.90;1.00
20231;DHT22;10274;49.022;9.338;2023-04-15T13:34:00;13.00;1.00
20231;DHT22;10274;49.022;9.338;2023-04-15T13:36:28;13.00;1.00
20231;DHT22;10274;49.022;9.338;2023-04-15T13:38:55;12.90;1.00
20231;DHT22;10274;49.022;9.338;2023-04-15T13:41:22;12.80;1.00
20231;DHT22;10274;49.022;9.338;2023-04-15T13:43:49;12.80;1.00
20231;DHT22;10274;49.022;9.338;2023-04-15T13:46:16;12.80;1.00
20231;DHT22;10274;49.022;9.338;2023-04-15T13:48:42;12.80;1.00
20231;DHT22;10274;49.022;9.338;2023-04-15T13:51:09;12.70;1.00
20231;DHT22;10274;49.022;9.338;2023-04-15T13:53:37;12.60;1.00
20231;DHT22;10274;49.022;9.338;2023-04-15T13:56:04;12.60;1.00
20231;DHT22;10274;49.022;9.338;2023-04-15T13:58:31;12.60;1.00
20231;DHT22;10274;49.022;9.338;2023-04-15T14:00:57;12.60;1.00
20231;DHT22;10274;49.022;9.338;2023-04-15T14:03:24;12.50;1.00
20231;DHT22;10274;49.022;9.338;2023-04-15T14:05:51;12.50;1.00
20231;DHT22;10274;49.022;9.338;2023-04-15T14:08:20;12.60;1.00
20231;DHT22;10274;49.022;9.338;2023-04-15T14:10:48;12.60;1.00
20231;DHT22;10274;49.022;9.338;2023-04-15T14:13:15;12.50;1.00
20231;DHT22;10274;49.022;9.338;2023-04-15T14:15:43;12.60;1.00
20231;DHT22;10274;49.022;9.338;2023-04-15T14:18:10;12.40;1.00
20231;DHT22;10274;49.022;9.338;2023-04-15T14:20:37;12.40;1.00
20231;DHT22;10274;49.022;9.338;2023-04-15T14:23:03;12.50;1.00
20231;DHT22;10274;49.022;9.338;2023-04-15T14:25:30;12.50;1.00
20231;DHT22;10274;49.022;9.338;2023-04-15T14:27:58;12.40;1.00
20231;DHT22;10274;49.022;9.338;2023-04-15T14:30:25;12.40;1.00
20231;DHT22;10274;49.022;9.338;2023-04-15T14:32:51;12.20;1.00
20231;DHT22;10274;49.022;9.338;2023-04-15T14:35:18;12.30;1.00
20231;DHT22;10274;49.022;9.338;2023-04-15T14:37:45;12.20;1.00
20231;DHT22;10274;49.022;9.338;2023-04-15T14:40:11;12.20;1.00
20231;DHT22;10274;49.022;9.338;2023-04-15T14:42:38;12.20;1.00
20231;DHT22;10274;49.022;9.338;2023-04-15T14:45:07;12.10;1.00
20231;DHT22;10274;49.022;9.338;2023-04-15T14:47:34;12.00;1.00
20231;DHT22;10274;49.022;9.338;2023-04-15T14:50:01;12.10;1.00
20231;DHT22;10274;49.022;9.338;2023-04-15T14:52:29;12.00;1.00
20231;DHT22;10274;49.022;9.338;2023-04-15T14:54:57;12.00;1.00
20231;DHT22;10274;49.022;9.338;2023-04-15T14:57:23;12.10;1.00
20231;DHT22;10274;49.022;9.338;2023-04-15T14:59:50;12.10;1.00
20231;DHT22;10274;49.022;9.338;2023-04-15T15:02:22;12.10;99.90
20231;DHT22;10274;49.022;9.338;2023-04-15T15:04:49;12.00;99.90
20231;DHT22;10274;49.022;9.338;2023-04-15T15:07:15;12.00;99.90
20231;DHT22;10274;49.022;9.338;2023-04-15T15:09:42;11.80;1.00
20231;DHT22;10274;49.022;9.338;2023-04-15T15:12:09;11.70;1.00
20231;DHT22;10274;49.022;9.338;2023-04-15T15:14:36;11.50;1.00
20231;DHT22;10274;49.022;9.338;2023-04-15T15:17:02;11.20;1.00
20231;DHT22;10274;49.022;9.338;2023-04-15T15:19:31;11.10;1.00
20231;DHT22;10274;49.022;9.338;2023-04-15T15:21:58;10.90;1.00
20231;DHT22;10274;49.022;9.338;2023-04-15T15:24:24;10.80;1.00
20231;DHT22;10274;49.022;9.338;2023-04-15T15:26:51;10.80;1.00
20231;DHT22;10274;49.022;9.338;2023-04-15T15:29:17;10.80;1.00
20231;DHT22;10274;49.022;9.338;2023-04-15T15:31:44;10.60;1.00
20231;DHT22;10274;49.022;9.338;2023-04-15T15:34:11;10.50;1.00
20231;DHT22;10274;49.022;9.338;2023-04-15T15:36:39;10.50;1.00
20231;DHT22;10274;49.022;9.338;2023-04-15T15:39:05;10.60;99.90
20231;DHT22;10274;49.022;9.338;2023-04-15T15:41:32;10.60;1.00
20231;DHT22;10274;49.022;9.338;2023-04-15T15:43:59;10.50;1.00
20231;DHT22;10274;49.022;9.338;2023-04-15T15:46:26;10.30;1.00